Detalii statie CEREAMIN SMEENI [00001CFD]

Toti senzorii

Date Temperatura solului [C]Precipitatii [mm]Voltaj baterie [mV]Leaf Wetness [Min]HC Air temperature [C]HC Relative humidity [%]Punctul de roua [C]
medieminmaxsumaultimatimpmedieminmaxmediemediemin
2020-06-02 07:00:00 17.2 17 17.4 0.4 6844 10.52 10.25 10.66 91.98 9.1 9
2020-06-02 08:00:00 17 16.9 17.2 0.6 6844 10 9.86 10.16 92.57 8.7 8.5
2020-06-02 09:00:00 16.9 16.8 17 1.2 6922 10.1 9.76 10.39 98.53 9.7 9.1
2020-06-02 10:00:00 16.8 16.8 17 1 7010 9.86 9.76 10.17 94.42 8.8 8.6
2020-06-02 11:00:00 16.7 16.7 16.9 2 7098 9.85 9.76 10.03 96.56 9.2 8.6
2020-06-02 12:00:00 16.7 16.7 16.8 1.6 7294 10.07 9.56 10.74 99.27 9.9 9.5
2020-06-02 13:00:00 16.8 16.5 17 0 7294 12.38 10.99 14.19 83.86 9.5 8.3
2020-06-02 14:00:00 17.1 17 17.3 0 7294 13.63 13.4 13.94 67.74 7.6 6.8
2020-06-02 15:00:00 17.5 17.4 17.7 0 7294 14.99 14.2 16.32 63.39 7.9 7.2
2020-06-02 16:00:00 17.8 17.6 18.3 0 7294 17.01 15.14 17.83 56.85 8.2 7.4
2020-06-02 17:00:00 18.4 18.1 18.8 0 7284 17.58 16.74 18.13 52.7 7.6 6.6
2020-06-02 18:00:00 18.8 18.7 19.1 0 7284 15.8 15.29 16.85 55.34 6.7 6.2
2020-06-02 19:00:00 18.8 18.7 19.1 0 7294 15.15 14.9 15.38 58.4 6.8 6.3
2020-06-02 20:00:00 18.6 18.5 18.8 0 7254 14.65 13.8 15.07 59.95 6.8 6.1
2020-06-02 21:00:00 18.3 18.2 18.6 0 7158 12.37 11.58 13.42 79.24 8.7 8.3
2020-06-02 22:00:00 18 17.9 18.3 0 7050 10.96 10.15 11.48 90.04 9.2 8.7
2020-06-02 23:00:00 17.7 17.5 18 0 6962 9.98 9.64 10.19 92.69 8.7 8.4
2020-06-03 00:00:00 17.4 17.3 17.6 0 6904 10.12 9.86 10.24 93.31 8.9 8.6
2020-06-03 01:00:00 17.1 17.1 17.2 0 6864 9.98 9.77 10.17 97.88 9.5 9.3
2020-06-03 02:00:00 16.9 16.8 17.1 0 6874 9.73 9.54 9.98 99.66 9.6 9.3
2020-06-03 03:00:00 16.7 16.7 16.9 0 6874 9.97 9.85 10.1 100 9.9 9.8
2020-06-03 04:00:00 16.5 16.4 16.8 0 6864 9.03 8.27 9.82 100 8.9 8.2
2020-06-03 05:00:00 16.3 16.1 16.5 0 6854 7.04 6.23 8.14 100 6.9 6.2
2020-06-03 06:00:00 16 15.8 16.1 0 6834 5.97 5.43 6.51 100 5.9 5.4
2020-06-03 07:00:00 15.7 15.6 15.9 0 6854 7.35 6.41 8.37 100 7.3 6.4
2020-06-03 08:00:00 15.5 15.5 15.7 0 6914 9.56 8.44 11.39 97.9 9.1 8.4
2020-06-03 09:00:00 15.5 15.4 15.6 0 7176 13.93 12.07 15.08 70.75 8.4 7.2
2020-06-03 10:00:00 15.6 15.5 15.8 0 7294 17.48 15.63 18.32 46.16 5.5 3.9
2020-06-03 11:00:00 16.2 16 16.5 0 7294 18.45 17.28 19.7 43.39 5.5 4.2
2020-06-03 12:00:00 16.8 16.4 17.2 0 7284 20.46 19.75 21.63 36.52 4.8 3.7
2020-06-03 13:00:00 17.7 17.3 18.3 0 7284 20.34 19.68 21.04 38.93 5.7 5
2020-06-03 14:00:00 18.7 18.2 19.1 0 7284 21.43 20.36 22.37 37.66 6.1 4.7
2020-06-03 15:00:00 19.6 19.2 20 0 7284 21.53 20.13 22.44 36.07 5.5 4.2
2020-06-03 16:00:00 20.2 20 20.4 0 7284 22.39 21.83 22.82 32.47 4.8 3.5
2020-06-03 17:00:00 20.6 20.6 20.8 0 7284 21.61 20.3 23.27 34.17 4.8 3.4
2020-06-03 18:00:00 20.6 20.5 20.7 0 7274 20.87 20.44 21.56 37.32 5.5 4.1
2020-06-03 19:00:00 20.4 20.3 20.6 0 7246 19.86 19.15 20.37 40.26 5.7 5.1
2020-06-03 20:00:00 20 19.8 20.2 0 7176 17.48 16.02 18.91 53.77 7.7 6.1
2020-06-03 21:00:00 19.5 19.4 19.7 0 7080 14.68 13.03 15.81 67.09 8.4 8.2
2020-06-03 22:00:00 19.1 18.9 19.3 0 7010 11.35 10.06 12.34 80.27 7.9 7.4
2020-06-03 23:00:00 18.6 18.5 18.9 0 6932 10.97 10.49 11.49 87.07 8.7 8.4
2020-06-04 00:00:00 18.2 17.9 18.5 0 6874 9.94 9.05 10.67 95.01 9 8.5
2020-06-04 01:00:00 17.9 17.7 18.2 0 6864 9.63 8.94 10.04 99.57 9.4 8.6
2020-06-04 02:00:00 17.5 17.3 17.8 0 6874 8.87 8.43 9.27 99.88 8.8 8.4
2020-06-04 03:00:00 17.1 17 17.4 0 6864 8.74 8.5 9.1 100 8.7 8.5
2020-06-04 04:00:00 16.9 16.8 17.2 0 6864 7.88 6.93 8.44 100 7.8 6.9
2020-06-04 05:00:00 16.6 16.5 16.8 0 6844 7.79 7.32 8.18 100 7.7 7.3
2020-06-04 06:00:00 16.3 16.1 16.5 0 6826 7.27 6.75 7.76 100 7.2 6.7